| Date | Time | Temp. (oF) | Dew Point (oF) | Rel. Hum. (%) | Press. (in.) | Wind Dir. (deg.) | Wind Speed (mph) | Hourly Rainfall (i n.) |
|
|---|---|---|---|---|---|---|---|---|---|
| 1 | 09/13 | 24:00 | 64 | 58 | 82 | 30.41 | 150 | 0 | 0.00 |
| 2 | 09/12 | 23:00 | 65 | 58 | 80 | 30.41 | 150 | 0 | 0.00 |
| 3 | 09/12 | 22:00 | 66 | 57 | 74 | 30.41 | 150 | 0 | 0.00 |
| 4 | 09/12 | 21:00 | 69 | 57 | 67 | 30.42 | 150 | 0 | 0.00 |
| 5 | 09/12 | 20:00 | 70 | 56 | 62 | 30.41 | 150 | 0 | 0.00 |
| 6 | 09/12 | 19:00 | 74 | 58 | 59 | 30.43 | 150 | 0 | 0.00 |
| 7 | 09/12 | 18:00 | 77 | 56 | 50 | 30.40 | 150 | 6 | 0.00 |
| 8 | 09/12 | 17:00 | 77 | 52 | 43 | 30.40 | 150 | 4 | 0.00 |
| 9 | 09/12 | 16:00 | 78 | 52 | 41 | 30.44 | 310 | 1 | 0.00 |
| 10 | 09/12 | 15:00 | 79 | 53 | 42 | 30.42 | 130 | 2 | 0.00 |
| 11 | 09/12 | 14:00 | 78 | 56 | 48 | 30.42 | 130 | 1 | 0.00 |
| 12 | 09/12 | 13:00 | 76 | 56 | 51 | 30.41 | 330 | 2 | 0.00 |
| 13 | 09/12 | 12:00 | 74 | 57 | 57 | 30.41 | 270 | 4 | 0.00 |
| 14 | 09/12 | 11:00 | 69 | 58 | 70 | 30.42 | 10 | 0 | 0.00 |
| 15 | 09/12 | 10:00 | 63 | 58 | 86 | 30.41 | 310 | 0 | 0.00 |
| 16 | 09/12 | 09:00 | 60 | 56 | 88 | 30.40 | 310 | 0 | 0.00 |
| 17 | 09/12 | 08:00 | 57 | 53 | 87 | 30.38 | 310 | 0 | 0.00 |
| 18 | 09/12 | 07:00 | 56 | 52 | 87 | 30.37 | 310 | 0 | 0.00 |
| 19 | 09/12 | 06:00 | 57 | 53 | 87 | 30.35 | 310 | 0 | 0.00 |
| 20 | 09/12 | 05:00 | 58 | 53 | 86 | 30.35 | 310 | 0 | 0.00 |
| 21 | 09/12 | 04:00 | 58 | 53 | 86 | 30.34 | 310 | 0 | 0.00 |
| 22 | 09/12 | 03:00 | 59 | 54 | 86 | 30.33 | 310 | 1 | 0.00 |
| 23 | 09/12 | 02:00 | 60 | 55 | 85 | 30.32 | 310 | 0 | 0.00 |
| 24 | 09/12 | 01:00 | 61 | 56 | 84 | 30.31 | 310 | 0 | 0.00 |